createdAt,value
2022-10-13T00:01:00.934Z,7.60
2022-10-13T00:03:27.940Z,7.60
2022-10-13T00:05:54.872Z,7.60
2022-10-13T00:08:22.493Z,7.70
2022-10-13T00:10:50.909Z,7.70
2022-10-13T00:13:23.666Z,7.80
2022-10-13T00:15:50.680Z,7.80
2022-10-13T00:18:17.798Z,7.90
2022-10-13T00:20:47.968Z,7.90
2022-10-13T00:23:15.613Z,8.00
2022-10-13T00:25:43.940Z,8.00
2022-10-13T00:28:11.511Z,8.10
2022-10-13T00:30:39.076Z,8.10
2022-10-13T00:33:06.878Z,8.20
2022-10-13T00:35:34.390Z,8.20
2022-10-13T00:38:01.325Z,8.20
2022-10-13T00:40:31.109Z,8.20
2022-10-13T00:42:59.003Z,8.20
2022-10-13T00:45:28.175Z,8.10
2022-10-13T00:47:58.932Z,8.00
2022-10-13T00:50:32.139Z,7.90
2022-10-13T00:53:01.283Z,7.90
2022-10-13T00:55:33.499Z,7.80
2022-10-13T00:58:05.407Z,7.90
2022-10-13T01:00:34.405Z,7.90
2022-10-13T01:03:03.794Z,8.00
2022-10-13T01:05:31.491Z,8.00
2022-10-13T01:07:59.995Z,8.00
2022-10-13T01:10:40.004Z,8.00
2022-10-13T01:13:17.757Z,8.10
2022-10-13T01:15:53.283Z,8.10
2022-10-13T01:18:30.198Z,8.10
2022-10-13T01:21:09.209Z,8.00
2022-10-13T01:24:00.796Z,8.00
2022-10-13T01:26:43.819Z,7.90
2022-10-13T01:29:33.214Z,7.90
2022-10-13T01:32:20.050Z,7.80
2022-10-13T01:35:10.125Z,7.90
2022-10-13T01:37:37.003Z,8.00
2022-10-13T01:40:53.267Z,8.00
2022-10-13T01:43:22.576Z,8.00
2022-10-13T01:45:59.587Z,7.90
2022-10-13T01:48:28.384Z,7.90
2022-10-13T01:50:58.630Z,7.90
2022-10-13T01:53:27.305Z,7.90
2022-10-13T01:55:57.548Z,7.90
2022-10-13T01:58:27.487Z,8.00
2022-10-13T02:01:18.419Z,8.00
2022-10-13T02:03:57.375Z,8.10
2022-10-13T02:06:28.086Z,8.20
2022-10-13T02:09:16.264Z,8.20
2022-10-13T02:11:50.984Z,8.30
2022-10-13T02:14:32.319Z,8.30
2022-10-13T02:17:03.128Z,8.30
2022-10-13T02:19:33.583Z,8.40
2022-10-13T02:22:00.766Z,8.40
2022-10-13T02:24:27.791Z,8.50
2022-10-13T02:26:54.777Z,8.40
2022-10-13T02:29:22.197Z,8.50
2022-10-13T02:31:49.380Z,8.50
2022-10-13T02:34:16.472Z,8.50
2022-10-13T02:36:46.745Z,8.50
2022-10-13T02:39:13.999Z,8.60
2022-10-13T02:41:41.061Z,8.60
2022-10-13T02:44:08.068Z,8.50
2022-10-13T02:46:41.268Z,8.50
2022-10-13T02:49:09.495Z,8.50
2022-10-13T02:51:40.050Z,8.50
2022-10-13T02:54:08.091Z,8.50
2022-10-13T02:56:35.167Z,8.50
2022-10-13T02:59:02.093Z,8.40
2022-10-13T03:01:29.186Z,8.40
2022-10-13T03:03:56.136Z,8.50
2022-10-13T03:06:23.435Z,8.40
2022-10-13T03:08:50.432Z,8.50
2022-10-13T03:11:17.525Z,8.50
2022-10-13T03:13:44.460Z,8.50
2022-10-13T03:16:11.437Z,8.50
2022-10-13T03:18:38.458Z,8.50
2022-10-13T03:21:06.705Z,8.60
2022-10-13T03:23:34.936Z,8.70
2022-10-13T03:26:02.433Z,8.70
2022-10-13T03:28:29.468Z,8.70
2022-10-13T03:31:08.950Z,8.70
2022-10-13T03:33:36.042Z,8.60
2022-10-13T03:36:05.488Z,8.60
2022-10-13T03:38:35.279Z,8.60
2022-10-13T03:41:12.460Z,8.60
2022-10-13T03:43:40.312Z,8.60
2022-10-13T03:46:08.650Z,8.60
2022-10-13T03:48:36.468Z,8.60
2022-10-13T03:51:15.209Z,8.70
2022-10-13T03:53:46.541Z,8.70
2022-10-13T03:56:20.430Z,8.70
2022-10-13T03:58:56.359Z,8.70
2022-10-13T04:01:27.717Z,8.70
2022-10-13T04:03:55.879Z,8.70
2022-10-13T04:06:24.556Z,8.70
2022-10-13T04:08:51.920Z,8.70
2022-10-13T04:11:19.904Z,8.70
2022-10-13T04:13:50.717Z,8.80
2022-10-13T04:16:23.984Z,8.80
2022-10-13T04:18:54.422Z,8.80
2022-10-13T04:21:22.833Z,8.80
2022-10-13T04:23:50.058Z,8.80
2022-10-13T04:26:20.602Z,8.80
2022-10-13T04:28:49.561Z,8.90
2022-10-13T04:31:17.714Z,8.80
2022-10-13T04:33:45.296Z,8.90
2022-10-13T04:36:14.320Z,8.80
2022-10-13T04:38:42.104Z,8.80
2022-10-13T04:41:10.519Z,8.80
2022-10-13T04:43:37.531Z,8.80
2022-10-13T04:46:09.568Z,8.80
2022-10-13T04:48:36.620Z,8.80
2022-10-13T04:51:06.953Z,8.80
2022-10-13T04:53:34.777Z,8.80
2022-10-13T04:56:03.826Z,8.80
2022-10-13T04:58:31.244Z,8.80
2022-10-13T05:01:02.567Z,8.80
2022-10-13T05:03:29.809Z,8.80
2022-10-13T05:05:57.084Z,8.70
2022-10-13T05:08:24.503Z,8.80
2022-10-13T05:11:01.957Z,8.80
2022-10-13T05:13:29.954Z,8.80
2022-10-13T05:15:59.655Z,8.80
2022-10-13T05:18:26.667Z,8.80
2022-10-13T05:20:54.033Z,8.80
2022-10-13T05:23:20.893Z,8.80
2022-10-13T05:25:47.868Z,8.80
2022-10-13T05:28:18.081Z,8.80
2022-10-13T05:30:45.074Z,8.80
2022-10-13T05:33:11.913Z,8.80
2022-10-13T05:35:38.971Z,8.80
2022-10-13T05:38:06.002Z,8.90
2022-10-13T05:40:33.590Z,8.90
2022-10-13T05:43:01.422Z,8.90
2022-10-13T05:45:32.606Z,8.90
2022-10-13T05:47:59.619Z,8.90
2022-10-13T05:50:26.892Z,9.00
2022-10-13T05:52:54.044Z,9.10
2022-10-13T05:55:20.997Z,9.10
2022-10-13T05:57:50.895Z,9.00
2022-10-13T06:00:20.321Z,9.00
2022-10-13T06:07:00.104Z,9.00
2022-10-13T06:09:34.782Z,9.00
2022-10-13T06:12:01.759Z,9.00
2022-10-13T06:14:28.747Z,9.10
2022-10-13T06:16:56.285Z,9.00
2022-10-13T06:19:23.463Z,9.10
2022-10-13T06:21:50.661Z,9.10
2022-10-13T06:24:17.911Z,9.10
2022-10-13T06:26:44.967Z,9.10
2022-10-13T06:29:11.953Z,9.10
2022-10-13T06:31:38.954Z,9.20
2022-10-13T06:34:07.543Z,9.30
2022-10-13T06:36:34.835Z,9.40
2022-10-13T06:39:01.705Z,9.50
2022-10-13T06:41:28.683Z,9.60
2022-10-13T06:43:55.802Z,9.70
2022-10-13T06:46:22.752Z,9.80
2022-10-13T06:48:51.085Z,9.90
2022-10-13T06:51:18.324Z,10.10
2022-10-13T06:53:45.503Z,10.20
2022-10-13T06:56:12.459Z,10.30
2022-10-13T06:58:39.409Z,10.40
2022-10-13T07:01:06.987Z,10.50
2022-10-13T07:03:34.089Z,10.50
2022-10-13T07:06:02.356Z,10.50
2022-10-13T07:08:29.474Z,10.60
2022-10-13T07:10:56.354Z,10.60
2022-10-13T07:13:23.473Z,10.70
2022-10-13T07:15:50.596Z,10.80
2022-10-13T07:18:17.558Z,10.90
2022-10-13T07:20:44.418Z,11.00
2022-10-13T07:23:11.318Z,11.00
2022-10-13T07:25:38.284Z,11.10
2022-10-13T07:28:05.432Z,11.20
2022-10-13T07:30:32.516Z,11.20
2022-10-13T07:33:00.195Z,11.30
2022-10-13T07:35:30.667Z,11.50
2022-10-13T07:37:58.030Z,11.70
2022-10-13T07:40:25.128Z,11.90
2022-10-13T07:42:52.108Z,12.10
2022-10-13T07:45:19.156Z,12.30
2022-10-13T07:47:46.116Z,12.50
2022-10-13T07:50:13.254Z,12.70
2022-10-13T07:52:40.207Z,12.90
2022-10-13T07:55:10.357Z,13.10
2022-10-13T07:57:37.550Z,13.40
2022-10-13T08:00:09.775Z,13.70
2022-10-13T08:02:39.557Z,14.10
2022-10-13T08:05:07.394Z,14.60
2022-10-13T08:07:34.419Z,15.00
2022-10-13T08:10:01.409Z,15.30
2022-10-13T08:12:28.345Z,15.70
2022-10-13T08:14:55.329Z,16.10
2022-10-13T08:17:22.600Z,16.40
2022-10-13T08:19:51.735Z,16.60
2022-10-13T08:22:20.733Z,16.40
2022-10-13T08:24:49.608Z,15.80
2022-10-13T08:27:37.019Z,16.00
2022-10-13T08:30:10.308Z,16.30
2022-10-13T08:32:37.239Z,16.60
2022-10-13T08:35:04.450Z,16.60
2022-10-13T08:37:31.504Z,16.80
2022-10-13T08:39:58.448Z,16.70
2022-10-13T08:42:25.408Z,16.80
2022-10-13T08:45:28.346Z,16.80
2022-10-13T08:48:12.665Z,16.70
2022-10-13T08:50:42.905Z,16.60
2022-10-13T08:53:34.165Z,16.50
2022-10-13T08:56:20.666Z,16.50
2022-10-13T08:58:50.272Z,16.50
2022-10-13T09:01:49.124Z,16.40
2022-10-13T09:04:28.065Z,16.30
2022-10-13T09:07:15.806Z,16.30
2022-10-13T09:09:43.503Z,16.20
2022-10-13T09:12:13.039Z,16.20
2022-10-13T09:14:41.424Z,16.40
2022-10-13T09:17:20.644Z,16.60
2022-10-13T09:20:10.573Z,16.70
2022-10-13T09:22:40.592Z,16.60
2022-10-13T09:25:07.480Z,16.70
2022-10-13T09:27:58.759Z,16.80
2022-10-13T09:30:31.786Z,16.80
2022-10-13T09:33:09.539Z,17.00
2022-10-13T09:35:37.785Z,17.10
2022-10-13T09:38:15.450Z,17.20
2022-10-13T09:43:38.321Z,17.20
2022-10-13T09:46:22.778Z,16.70
2022-10-13T09:48:53.675Z,16.70
2022-10-13T09:51:41.808Z,16.60
2022-10-13T09:54:38.018Z,16.50
2022-10-13T09:57:41.360Z,16.30
2022-10-13T10:00:24.983Z,16.20
2022-10-13T10:02:57.914Z,16.10
2022-10-13T10:05:26.665Z,16.00
2022-10-13T10:08:06.755Z,15.90
2022-10-13T10:10:39.724Z,16.10
2022-10-13T10:13:14.659Z,16.00
2022-10-13T10:16:07.601Z,16.20
2022-10-13T10:18:58.785Z,16.60
2022-10-13T10:21:49.945Z,16.60
2022-10-13T10:24:29.808Z,17.10
2022-10-13T10:27:21.543Z,17.60
2022-10-13T10:29:58.868Z,17.80
2022-10-13T10:32:28.866Z,18.50
2022-10-13T10:35:38.701Z,18.80
2022-10-13T10:38:44.113Z,20.20
2022-10-13T10:41:29.821Z,20.70
2022-10-13T10:44:19.425Z,20.10
2022-10-13T10:46:50.966Z,20.70
2022-10-13T10:49:31.002Z,22.70
2022-10-13T10:52:00.241Z,26.20
2022-10-13T10:54:49.090Z,24.20
2022-10-13T10:57:41.362Z,23.30
2022-10-13T11:00:21.267Z,22.40
2022-10-13T11:02:48.212Z,21.50
2022-10-13T11:05:16.238Z,21.60
2022-10-13T11:07:43.087Z,21.20
2022-10-13T11:10:19.070Z,22.30
2022-10-13T11:12:51.883Z,22.80
2022-10-13T11:15:26.299Z,22.70
2022-10-13T11:17:53.689Z,22.30
2022-10-13T11:20:20.851Z,23.60
2022-10-13T11:23:07.994Z,21.70
2022-10-13T11:25:45.044Z,21.00
2022-10-13T11:28:21.455Z,21.40
2022-10-13T11:30:55.362Z,20.70
2022-10-13T11:33:40.265Z,20.30
2022-10-13T11:36:29.040Z,19.90
2022-10-13T11:39:24.317Z,19.90
2022-10-13T11:42:19.614Z,19.60
2022-10-13T11:44:59.733Z,19.70
2022-10-13T11:47:57.683Z,20.20
2022-10-13T11:50:36.491Z,20.20
2022-10-13T11:53:21.582Z,20.50
2022-10-13T11:55:55.565Z,20.20
2022-10-13T11:58:24.974Z,20.30
2022-10-13T12:01:04.365Z,20.60
2022-10-13T12:03:36.991Z,21.00
2022-10-13T12:06:21.436Z,21.30
2022-10-13T12:08:49.803Z,20.10
2022-10-13T12:11:29.274Z,20.30
2022-10-13T12:13:56.823Z,20.80
2022-10-13T12:16:23.875Z,20.90
2022-10-13T12:18:51.243Z,21.00
2022-10-13T12:21:22.996Z,20.80
2022-10-13T12:23:52.001Z,20.00
2022-10-13T12:26:22.010Z,19.40
2022-10-13T12:28:53.815Z,19.10
2022-10-13T12:31:22.972Z,19.70
2022-10-13T12:34:01.629Z,19.90
2022-10-13T12:36:31.255Z,20.20
2022-10-13T12:39:04.964Z,20.30
2022-10-13T12:41:37.368Z,20.70
2022-10-13T12:44:06.768Z,20.60
2022-10-13T12:46:38.438Z,20.40
2022-10-13T12:49:07.570Z,19.80
2022-10-13T12:51:37.687Z,19.80
2022-10-13T12:54:09.886Z,19.70
2022-10-13T12:56:37.114Z,19.60
2022-10-13T12:59:04.450Z,19.60
2022-10-13T13:01:35.630Z,19.80
2022-10-13T13:04:16.212Z,19.60
2022-10-13T13:07:03.038Z,19.50
2022-10-13T13:09:35.623Z,19.70
2022-10-13T13:12:08.874Z,19.50
2022-10-13T13:14:49.801Z,19.20
2022-10-13T13:20:34.141Z,18.80
2022-10-13T13:23:01.278Z,18.70
2022-10-13T13:25:28.454Z,18.50
2022-10-13T13:27:55.518Z,18.40
2022-10-13T13:30:24.019Z,18.30
2022-10-13T13:32:51.359Z,18.40
2022-10-13T13:35:18.948Z,18.40
2022-10-13T13:37:49.734Z,18.40
2022-10-13T13:40:27.674Z,18.30
2022-10-13T13:42:55.450Z,18.30
2022-10-13T13:45:25.499Z,18.30
2022-10-13T13:47:57.981Z,18.10
2022-10-13T13:50:39.562Z,18.00
2022-10-13T13:53:06.901Z,17.90
2022-10-13T13:55:34.091Z,17.70
2022-10-13T13:58:01.088Z,17.60
2022-10-13T14:00:28.074Z,17.50
2022-10-13T14:02:56.635Z,17.40
2022-10-13T14:05:23.812Z,17.30
2022-10-13T14:07:53.846Z,17.20
2022-10-13T14:10:20.789Z,17.10
2022-10-13T14:12:47.750Z,17.10
2022-10-13T14:15:14.704Z,17.00
2022-10-13T14:17:41.618Z,16.90
2022-10-13T14:20:09.181Z,16.90
2022-10-13T14:22:39.020Z,16.70
2022-10-13T14:25:07.323Z,16.60
2022-10-13T14:27:35.453Z,16.40
2022-10-13T14:30:03.379Z,16.30
2022-10-13T14:32:30.318Z,16.00
2022-10-13T14:34:57.207Z,15.80
2022-10-13T14:37:27.753Z,15.60
2022-10-13T14:39:57.385Z,15.60
2022-10-13T14:42:24.348Z,15.40
2022-10-13T14:44:51.349Z,15.50
2022-10-13T14:47:18.483Z,15.50
2022-10-13T14:49:45.737Z,15.50
2022-10-13T14:52:12.667Z,15.50
2022-10-13T14:54:44.544Z,15.50
2022-10-13T14:57:15.712Z,15.40
2022-10-13T14:59:43.433Z,15.40
2022-10-13T15:02:11.876Z,15.40
2022-10-13T15:04:41.696Z,15.40
2022-10-13T15:07:09.011Z,15.40
2022-10-13T15:09:53.067Z,15.50
2022-10-13T15:12:23.605Z,15.50
2022-10-13T15:14:50.891Z,15.50
2022-10-13T15:17:17.787Z,15.40
2022-10-13T15:19:44.735Z,15.40
2022-10-13T15:22:11.715Z,15.30
2022-10-13T15:24:38.612Z,15.10
2022-10-13T15:27:05.517Z,15.20
2022-10-13T15:29:32.474Z,15.00
2022-10-13T15:32:08.708Z,14.90
2022-10-13T15:34:35.724Z,14.80
2022-10-13T15:37:02.651Z,14.80
2022-10-13T15:39:29.548Z,14.70
2022-10-13T15:41:56.609Z,14.70
2022-10-13T15:44:25.899Z,14.60
2022-10-13T15:47:07.808Z,14.60
2022-10-13T15:49:39.711Z,14.50
2022-10-13T15:52:06.755Z,14.50
2022-10-13T15:54:35.768Z,14.40
2022-10-13T15:57:02.626Z,14.30
2022-10-13T15:59:29.606Z,14.40
2022-10-13T16:01:56.517Z,14.30
2022-10-13T16:04:23.558Z,14.30
2022-10-13T16:06:50.419Z,14.30
2022-10-13T16:09:17.374Z,14.20
2022-10-13T16:11:44.326Z,14.20
2022-10-13T16:14:11.293Z,14.20
2022-10-13T16:16:38.234Z,14.30
2022-10-13T16:19:05.124Z,14.30
2022-10-13T16:21:32.045Z,14.30
2022-10-13T16:24:00.091Z,14.30
2022-10-13T16:26:27.873Z,14.30
2022-10-13T16:28:56.669Z,14.10
2022-10-13T16:31:24.396Z,14.10
2022-10-13T16:33:51.369Z,14.10
2022-10-13T16:36:19.919Z,14.10
2022-10-13T16:38:52.276Z,14.10
2022-10-13T16:41:19.742Z,14.10
2022-10-13T16:43:48.261Z,14.00
2022-10-13T16:46:17.666Z,14.00
2022-10-13T16:48:45.854Z,13.90
2022-10-13T16:51:16.008Z,13.90
2022-10-13T16:53:43.253Z,13.90
2022-10-13T16:56:10.467Z,13.90
2022-10-13T16:58:37.875Z,13.80
2022-10-13T17:01:09.780Z,13.80
2022-10-13T17:03:38.604Z,13.80
2022-10-13T17:06:06.946Z,13.80
2022-10-13T17:08:34.641Z,13.70
2022-10-13T17:11:02.968Z,13.70
2022-10-13T17:13:31.997Z,13.70
2022-10-13T17:15:59.397Z,13.60
2022-10-13T17:18:27.928Z,13.60
2022-10-13T17:21:00.027Z,13.60
2022-10-13T17:23:28.566Z,13.60
2022-10-13T17:26:00.291Z,13.60
2022-10-13T17:28:27.351Z,13.60
2022-10-13T17:31:06.632Z,13.60
2022-10-13T17:33:34.956Z,13.60
2022-10-13T17:36:05.412Z,13.60
2022-10-13T17:38:32.676Z,13.60
2022-10-13T17:41:01.316Z,13.60
2022-10-13T17:43:28.661Z,13.60
2022-10-13T17:46:03.650Z,13.50
2022-10-13T17:48:45.097Z,13.50
2022-10-13T17:51:14.739Z,13.50
2022-10-13T17:53:43.304Z,13.50
2022-10-13T17:56:14.533Z,13.50
2022-10-13T17:58:42.610Z,13.40
2022-10-13T18:01:13.971Z,13.40
2022-10-13T18:03:45.897Z,13.40
2022-10-13T18:06:13.635Z,13.40
2022-10-13T18:08:40.862Z,13.40
2022-10-13T18:11:16.310Z,13.40
2022-10-13T18:13:44.729Z,13.40
2022-10-13T18:16:22.773Z,13.40
2022-10-13T18:18:50.586Z,13.50
2022-10-13T18:21:22.597Z,13.50
2022-10-13T18:23:58.135Z,13.40
2022-10-13T18:26:26.534Z,13.40
2022-10-13T18:28:53.969Z,13.40
2022-10-13T18:31:23.804Z,13.50
2022-10-13T18:33:51.825Z,13.50
2022-10-13T18:36:23.701Z,13.50
2022-10-13T18:38:52.315Z,13.50
2022-10-13T18:41:20.601Z,13.50
2022-10-13T18:43:47.606Z,13.50
2022-10-13T18:46:18.214Z,13.60
2022-10-13T18:48:45.492Z,13.60
2022-10-13T18:51:14.604Z,13.60
2022-10-13T18:53:43.588Z,13.60
2022-10-13T18:56:16.965Z,13.70
2022-10-13T18:58:43.971Z,13.70
2022-10-13T19:01:14.135Z,13.70
2022-10-13T19:03:41.910Z,13.70
2022-10-13T19:06:12.704Z,13.70
2022-10-13T19:08:42.722Z,13.70
2022-10-13T19:11:29.538Z,13.60
2022-10-13T19:13:57.597Z,13.70
2022-10-13T19:16:26.331Z,13.60
2022-10-13T19:18:53.476Z,13.70
2022-10-13T19:21:22.313Z,13.70
2022-10-13T19:23:49.760Z,13.70
2022-10-13T19:26:23.934Z,13.70
2022-10-13T19:28:56.720Z,13.70
2022-10-13T19:31:26.688Z,13.70
2022-10-13T19:33:55.616Z,13.70
2022-10-13T19:36:30.434Z,13.70
2022-10-13T19:39:05.170Z,13.70
2022-10-13T19:41:33.224Z,13.70
2022-10-13T19:44:00.657Z,13.70
2022-10-13T19:46:39.977Z,13.60
2022-10-13T19:49:07.883Z,13.60
2022-10-13T19:51:35.587Z,13.60
2022-10-13T19:54:05.128Z,13.60
2022-10-13T19:56:32.838Z,13.50
2022-10-13T19:59:01.792Z,13.50
2022-10-13T20:01:28.867Z,13.50
2022-10-13T20:03:57.611Z,13.40
2022-10-13T20:06:24.470Z,13.50
2022-10-13T20:08:51.503Z,13.50
2022-10-13T20:11:23.890Z,13.50
2022-10-13T20:13:53.004Z,13.50
2022-10-13T20:16:23.365Z,13.50
2022-10-13T20:18:55.967Z,13.50
2022-10-13T20:21:24.252Z,13.50
2022-10-13T20:23:51.886Z,13.50
2022-10-13T20:26:19.930Z,13.50
2022-10-13T20:28:48.438Z,13.50
2022-10-13T20:31:17.727Z,13.50
2022-10-13T20:33:47.094Z,13.50
2022-10-13T20:36:16.611Z,13.50
2022-10-13T20:38:43.742Z,13.50
2022-10-13T20:41:28.399Z,13.50
2022-10-13T20:43:57.361Z,13.50
2022-10-13T20:46:25.246Z,13.50
2022-10-13T20:51:42.574Z,13.50
2022-10-13T20:54:14.575Z,13.50
2022-10-13T20:56:42.599Z,13.50
2022-10-13T20:59:12.095Z,13.40
2022-10-13T21:01:39.290Z,13.40
2022-10-13T21:04:06.806Z,13.50
2022-10-13T21:06:34.453Z,13.50
2022-10-13T21:09:01.751Z,13.50
2022-10-13T21:11:28.651Z,13.50
2022-10-13T21:13:55.653Z,13.50
2022-10-13T21:16:27.285Z,13.50
2022-10-13T21:18:56.188Z,13.50
2022-10-13T21:21:31.303Z,13.50
2022-10-13T21:24:06.043Z,13.50
2022-10-13T21:26:34.350Z,13.60
2022-10-13T21:29:01.826Z,13.60
2022-10-13T21:31:29.314Z,13.50
2022-10-13T21:33:56.877Z,13.50
2022-10-13T21:36:30.053Z,13.60
2022-10-13T21:38:59.376Z,13.60
2022-10-13T21:41:27.340Z,13.60
2022-10-13T21:43:54.729Z,13.50
2022-10-13T21:46:25.083Z,13.50
2022-10-13T21:48:57.965Z,13.50
2022-10-13T21:51:31.302Z,13.50
2022-10-13T21:54:01.012Z,13.50
2022-10-13T21:56:30.827Z,13.50
2022-10-13T21:58:59.765Z,13.50
2022-10-13T22:01:26.888Z,13.50
2022-10-13T22:03:56.350Z,13.50
2022-10-13T22:06:26.634Z,13.50
2022-10-13T22:08:55.188Z,13.60
2022-10-13T22:11:24.725Z,13.60
2022-10-13T22:13:51.707Z,13.50
2022-10-13T22:16:22.217Z,13.40
2022-10-13T22:18:53.215Z,13.50
2022-10-13T22:21:26.114Z,13.40
2022-10-13T22:23:57.494Z,13.50
2022-10-13T22:26:25.498Z,13.50
2022-10-13T22:28:52.854Z,13.50
2022-10-13T22:31:20.531Z,13.40
2022-10-13T22:33:48.274Z,13.40
2022-10-13T22:36:18.419Z,13.40
2022-10-13T22:38:47.247Z,13.40
2022-10-13T22:41:15.391Z,13.40
2022-10-13T22:43:53.183Z,13.40
2022-10-13T22:46:22.320Z,13.40
2022-10-13T22:48:49.832Z,13.40
2022-10-13T22:51:19.769Z,13.30
2022-10-13T22:53:47.183Z,13.40
2022-10-13T22:56:22.739Z,13.40
2022-10-13T22:58:58.814Z,13.30
2022-10-13T23:01:26.483Z,13.40
2022-10-13T23:03:56.289Z,13.30
2022-10-13T23:06:30.480Z,13.40
2022-10-13T23:09:00.794Z,13.30
2022-10-13T23:11:28.282Z,13.30
2022-10-13T23:13:55.923Z,13.20
2022-10-13T23:16:25.402Z,13.30
2022-10-13T23:18:52.817Z,13.20
2022-10-13T23:21:26.148Z,13.20
2022-10-13T23:24:02.226Z,13.20
2022-10-13T23:26:30.102Z,13.20
2022-10-13T23:28:58.112Z,13.20
2022-10-13T23:31:26.926Z,13.20
2022-10-13T23:33:54.957Z,13.20
2022-10-13T23:36:24.765Z,13.20
2022-10-13T23:39:06.993Z,13.20
2022-10-13T23:41:34.399Z,13.20
2022-10-13T23:44:01.440Z,13.20
2022-10-13T23:46:28.567Z,13.20
2022-10-13T23:48:55.962Z,13.20
2022-10-13T23:51:24.610Z,13.20
2022-10-13T23:53:52.008Z,13.20
2022-10-13T23:56:19.719Z,13.20
2022-10-13T23:58:47.149Z,13.20
